Time;durP1;ratioP1;P1;durP2;ratioP2;P2;SDS_P1;SDS_P2;PMS_P1;PMS_P2;Temp;Humidity;BMP_temperature;BMP_pressure;BME280_temperature;BME280_humidity;BME280_pressure;Samples;Min_cycle;Max_cycle;Signal;HPM_P1;HPM_P2
2023/10/16 00:02:13;;;;;;;5.20;1.00;;;;;;;6.08;69.79;100383.59;31239084;27;97046;-65
2023/10/16 00:17:16;;;;;;;2.70;0.80;;;;;;;6.21;70.05;100392.09;31221427;28;96726;-63
2023/10/16 00:32:17;;;;;;;6.73;1.30;;;;;;;6.42;69.57;100388.50;31221118;27;97563;-61
2023/10/16 00:47:17;;;;;;;4.20;1.08;;;;;;;6.47;69.02;100388.09;31218720;27;96857;-62
2023/10/16 01:02:26;;;;;;;2.10;1.13;;;;;;;6.26;68.81;100400.47;31218110;28;97444;-63
2023/10/16 01:17:35;;;;;;;1.47;0.60;;;;;;;5.84;69.38;100394.50;31216214;27;97562;-63
2023/10/16 01:32:38;;;;;;;4.03;0.90;;;;;;;5.47;69.31;100400.31;31214548;27;97665;-64
2023/10/16 01:47:39;;;;;;;2.60;0.80;;;;;;;5.29;70.60;100390.38;31213516;27;97438;-62
2023/10/16 02:02:39;;;;;;;2.50;1.00;;;;;;;5.15;70.21;100398.63;31215324;28;97081;-64
2023/10/16 02:17:42;;;;;;;4.82;0.98;;;;;;;5.02;70.85;100396.19;31211096;28;97695;-63
2023/10/16 02:32:42;;;;;;;4.03;1.00;;;;;;;4.88;70.88;100398.19;31209454;28;96780;-63
2023/10/16 02:47:43;;;;;;;3.05;1.17;;;;;;;4.83;71.40;100404.81;31207193;27;103036;-63
2023/10/16 03:02:47;;;;;;;3.38;0.80;;;;;;;4.78;71.68;100422.84;31221907;27;97281;-64
2023/10/16 03:17:50;;;;;;;6.83;2.27;;;;;;;4.67;71.99;100440.38;31227416;27;97206;-62
2023/10/16 03:32:53;;;;;;;3.78;1.63;;;;;;;4.57;72.19;100436.84;31225869;27;96978;-64
2023/10/16 03:47:57;;;;;;;5.78;1.48;;;;;;;4.56;72.44;100437.78;31222586;27;96701;-63
2023/10/16 04:02:59;;;;;;;4.93;1.50;;;;;;;4.46;72.83;100440.34;31221435;28;97109;-65
2023/10/16 04:18:04;;;;;;;5.30;1.58;;;;;;;4.65;73.07;100442.31;31218781;28;97534;-66
2023/10/16 04:33:15;;;;;;;6.53;1.70;;;;;;;4.63;72.93;100457.44;31218460;28;97422;-63
2023/10/16 04:48:47;;;;;;;3.60;1.55;;;;;;;4.47;72.99;100457.84;31212263;27;96871;-65
2023/10/16 05:04:14;;;;;;;8.60;2.10;;;;;;;4.42;73.44;100448.66;31211830;28;96976;-62
2023/10/16 06:20:21;;;;;;;7.83;2.37;;;;;;;5.93;71.78;100494.16;31207387;28;97208;-64
2023/10/16 06:35:22;;;;;;;3.23;2.00;;;;;;;6.71;71.14;100491.78;31205548;28;97378;-64
2023/10/16 07:05:48;;;;;;;5.07;2.20;;;;;;;7.17;70.13;100523.84;31202338;28;96991;-66
2023/10/16 07:20:59;;;;;;;4.33;1.23;;;;;;;7.88;69.18;100530.56;31201142;27;97082;-63
2023/10/16 07:35:59;;;;;;;5.27;1.50;;;;;;;8.60;67.76;100541.47;31198678;27;97550;-64
2023/10/16 07:51:01;;;;;;;3.97;1.13;;;;;;;9.07;65.77;100536.97;31215722;27;97400;-65
2023/10/16 08:06:04;;;;;;;6.00;1.30;;;;;;;8.79;65.44;100540.50;31218003;27;97035;-65
2023/10/16 08:21:06;;;;;;;3.53;1.00;;;;;;;11.23;62.42;100535.22;31214895;28;97247;-64
2023/10/16 08:36:07;;;;;;;4.13;1.40;;;;;;;12.06;60.75;100544.00;31213971;28;96811;-65
2023/10/16 08:51:08;;;;;;;2.60;1.00;;;;;;;20.35;47.69;100544.22;31215439;28;97200;-64
2023/10/16 09:06:09;;;;;;;4.23;1.40;;;;;;;22.94;38.34;100547.38;31090766;28;98572;-67
2023/10/16 09:21:13;;;;;;;5.10;1.40;;;;;;;16.05;41.91;100550.94;31087884;28;97189;-63
2023/10/16 09:36:18;;;;;;;5.53;1.53;;;;;;;19.84;38.74;100557.03;31086426;28;97367;-63
2023/10/16 09:51:18;;;;;;;4.80;1.30;;;;;;;15.41;40.55;100552.72;31085456;28;96765;-65
2023/10/16 10:06:22;;;;;;;4.93;1.48;;;;;;;12.84;44.48;100569.88;31206991;28;96784;-66
2023/10/16 10:21:30;;;;;;;4.40;1.30;;;;;;;14.41;45.91;100579.25;31205381;28;97588;-67
2023/10/16 10:36:36;;;;;;;8.17;1.30;;;;;;;20.92;35.98;100570.19;31201957;28;97043;-65
2023/10/16 10:51:44;;;;;;;4.13;1.47;;;;;;;21.79;34.10;100547.16;31203270;27;97366;-64
2023/10/16 11:06:52;;;;;;;5.27;1.20;;;;;;;21.32;33.24;100552.50;31203383;27;96893;-64
2023/10/16 11:21:52;;;;;;;3.60;1.03;;;;;;;25.20;29.12;100534.38;31216659;27;96798;-64
2023/10/16 11:36:53;;;;;;;5.72;0.98;;;;;;;22.67;26.56;100527.31;31220291;27;97085;-64
2023/10/16 11:51:58;;;;;;;;;;;;;;;17.93;32.19;100512.66;31221136;27;97135;-65
2023/10/16 12:06:58;;;;;;;2.33;0.70;;;;;;;30.81;21.78;100512.75;31218655;28;96860;-64
2023/10/16 12:22:00;;;;;;;4.78;1.00;;;;;;;29.12;20.15;100519.88;31218654;28;97516;-63
2023/10/16 12:37:06;;;;;;;3.30;0.90;;;;;;;17.70;32.45;100509.53;31214998;27;97231;-65
2023/10/16 12:52:07;;;;;;;2.20;0.80;;;;;;;17.61;35.86;100524.28;31214290;27;97556;-64
2023/10/16 13:07:07;;;;;;;4.65;1.15;;;;;;;21.96;28.38;100515.53;31214227;27;97104;-62
2023/10/16 13:22:10;;;;;;;2.10;0.87;;;;;;;28.45;24.70;100519.47;31211099;28;96772;-65
2023/10/16 13:37:11;;;;;;;3.13;0.80;;;;;;;25.51;24.21;100519.94;31209273;27;97054;-63
2023/10/16 13:52:11;;;;;;;2.90;0.60;;;;;;;28.05;23.42;100513.06;31208204;27;97078;-63
2023/10/16 14:07:15;;;;;;;2.72;0.65;;;;;;;30.53;19.48;100523.63;31207402;28;96679;-62
2023/10/16 14:22:16;;;;;;;3.40;0.80;;;;;;;17.42;32.02;100507.91;31206606;28;97455;-62
2023/10/16 14:37:16;;;;;;;2.30;0.77;;;;;;;13.91;37.58;100513.84;31205329;28;97258;-63
2023/10/16 14:52:17;;;;;;;1.55;1.20;;;;;;;12.44;41.46;100507.63;31213834;27;96751;-62
2023/10/16 15:07:18;;;;;;;20.33;5.88;;;;;;;12.22;42.13;100519.91;31225882;28;96788;-62
2023/10/16 15:22:18;;;;;;;6.73;2.00;;;;;;;10.60;45.42;100538.25;31222845;28;96768;-64
2023/10/16 15:37:19;;;;;;;3.53;1.52;;;;;;;9.95;47.60;100554.72;31222812;28;107000;-64
2023/10/16 15:52:19;;;;;;;4.70;2.00;;;;;;;9.55;48.49;100564.13;31221726;27;106610;-63
2023/10/16 16:07:20;;;;;;;4.50;1.85;;;;;;;9.35;49.73;100587.38;31219727;28;97451;-63
2023/10/16 16:22:20;;;;;;;6.05;2.45;;;;;;;9.00;51.64;100600.50;31218971;28;99564;-62
2023/10/16 16:37:21;;;;;;;4.82;1.85;;;;;;;8.77;52.95;100600.91;31216226;28;113391;-64
2023/10/16 16:52:21;;;;;;;6.72;2.30;;;;;;;8.59;54.29;100598.22;31213965;28;97209;-64
2023/10/16 17:07:21;;;;;;;5.82;2.45;;;;;;;8.45;55.28;100604.03;31212579;27;96868;-65
2023/10/16 17:22:24;;;;;;;3.97;2.47;;;;;;;8.42;56.12;100613.09;31210526;27;96728;-64
2023/10/16 17:37:25;;;;;;;5.40;2.80;;;;;;;8.21;56.83;100609.78;31210307;27;97064;-66
2023/10/16 17:52:36;;;;;;;8.27;3.00;;;;;;;7.65;57.77;100614.91;31190510;28;96776;-62
2023/10/16 18:07:39;;;;;;;7.23;3.40;;;;;;;7.23;59.05;100615.19;31057764;28;97116;-63
2023/10/16 18:22:39;;;;;;;9.50;4.07;;;;;;;6.91;59.47;100626.84;31058548;28;109226;-62
2023/10/16 18:37:40;;;;;;;9.75;5.25;;;;;;;6.68;60.69;100627.06;31055984;28;96778;-63
2023/10/16 18:52:41;;;;;;;16.88;9.63;;;;;;;6.76;61.87;100637.81;31036575;28;97114;-65
2023/10/16 19:07:41;;;;;;;13.73;6.50;;;;;;;6.97;62.32;100655.47;30967805;28;104232;-66
2023/10/16 19:22:44;;;;;;;16.15;8.73;;;;;;;7.00;62.74;100679.03;30971295;28;104738;-64
2023/10/16 19:37:44;;;;;;;14.43;6.90;;;;;;;6.77;63.42;100683.69;30969779;28;97787;-61
2023/10/16 19:52:46;;;;;;;11.35;6.57;;;;;;;6.71;63.61;100695.66;30959053;28;97667;-62
2023/10/16 20:07:47;;;;;;;14.50;7.07;;;;;;;6.72;64.35;100699.97;30959896;28;96668;-61
2023/10/16 20:22:52;;;;;;;13.67;6.23;;;;;;;6.67;64.71;100710.13;30955729;28;96751;-65
2023/10/16 20:37:52;;;;;;;;;;;;;;;5.89;65.29;100725.44;30954680;28;97162;-62
2023/10/16 20:52:53;;;;;;;13.43;6.22;;;;;;;5.48;66.43;100733.16;30957242;28;97486;-64
2023/10/16 21:07:54;;;;;;;12.30;6.25;;;;;;;5.28;67.40;100736.56;30954664;28;97202;-62
2023/10/16 21:22:55;;;;;;;10.75;5.80;;;;;;;4.97;68.29;100733.72;30953931;28;97199;-66
2023/10/16 21:37:57;;;;;;;11.90;6.95;;;;;;;4.92;69.30;100723.50;30953215;28;97852;-65
2023/10/16 21:52:57;;;;;;;10.23;6.32;;;;;;;4.84;69.30;100728.53;30952215;28;97696;-64
2023/10/16 22:07:57;;;;;;;10.50;6.72;;;;;;;4.64;69.89;100728.28;30953384;28;108016;-65
2023/10/16 22:22:58;;;;;;;15.15;9.35;;;;;;;4.43;70.63;100724.66;30950862;28;96896;-67
2023/10/16 22:37:58;;;;;;;13.20;7.78;;;;;;;4.30;70.90;100730.88;30969142;28;96854;-65
2023/10/16 22:52:58;;;;;;;11.20;7.38;;;;;;;3.83;70.97;100730.84;30966316;28;107131;-65
2023/10/16 23:07:59;;;;;;;15.95;9.73;;;;;;;4.23;72.10;100727.03;30861242;28;98678;-64
2023/10/16 23:22:59;;;;;;;18.60;9.85;;;;;;;4.20;71.97;100729.91;30873481;28;110179;-64
2023/10/16 23:38:01;;;;;;;12.52;8.55;;;;;;;3.97;72.67;100728.97;30973096;28;97967;-66
2023/10/16 23:53:13;;;;;;;17.13;9.05;;;;;;;3.90;72.62;100716.25;30972622;28;97514;-63
